Time;durP1;ratioP1;P1;durP2;ratioP2;P2;SDS_P1;SDS_P2;PMS_P1;PMS_P2;Temp;Humidity;BMP_temperature;BMP_pressure;BME280_temperature;BME280_humidity;BME280_pressure;Samples;Min_cycle;Max_cycle;Signal;HPM_P1;HPM_P2
2022/09/29 00:00:10;;;;;;;;;;;;;;;12.69;100.00;96743.57;1712253;82;26056;-84
2022/09/29 00:02:38;;;;;;;;;;;;;;;12.67;100.00;96743.39;1733079;81;20748;-84
2022/09/29 00:05:04;;;;;;;;;;;;;;;12.65;100.00;96746.20;1735279;81;20271;-84
2022/09/29 00:07:31;;;;;;;;;;;;;;;12.65;100.00;96750.12;1730101;81;24965;-84
2022/09/29 00:09:58;;;;;;;;;;;;;;;12.65;100.00;96749.31;1708776;82;22692;-84
2022/09/29 00:12:25;;;;;;;;;;;;;;;12.69;100.00;96748.82;1727893;81;21452;-84
2022/09/29 00:14:51;;;;;;;;;;;;;;;12.71;100.00;96750.77;1690295;83;24420;-84
2022/09/29 00:17:19;;;;;;;;;;;;;;;12.71;100.00;96749.46;1687788;83;20257;-84
2022/09/29 00:19:45;;;;;;;;;;;;;;;12.72;100.00;96751.11;1734674;81;24940;-84
2022/09/29 00:22:11;;;;;;;;;;;;;;;12.71;100.00;96758.64;1728231;82;20852;-84
2022/09/29 00:24:36;;;;;;;;;;;;;;;12.70;100.00;96753.09;1702646;82;21027;-84
2022/09/29 00:27:02;;;;;;;;;;;;;;;12.67;100.00;96752.58;1688736;83;20327;-84
2022/09/29 00:29:28;;;;;;;;;;;;;;;12.66;100.00;96752.23;1736184;81;20277;-84
2022/09/29 00:31:54;;;;;;;;;;;;;;;12.64;100.00;96754.22;1738068;80;20482;-84
2022/09/29 00:34:19;;;;;;;;;;;;;;;12.61;100.00;96761.09;1709423;82;20282;-84
2022/09/29 00:36:45;;;;;;;;;;;;;;;12.59;100.00;96766.52;1738699;81;21084;-85
2022/09/29 00:39:11;;;;;;;;;;;;;;;12.56;100.00;96766.33;1724208;81;20252;-84
2022/09/29 00:41:40;;;;;;;;;;;;;;;12.52;100.00;96769.44;1736085;81;20254;-84
2022/09/29 00:44:15;;;;;;;;;;;;;;;12.48;100.00;96770.27;1706303;82;39206;-84
2022/09/29 00:46:49;;;;;;;;;;;;;;;12.46;100.00;96785.81;1734399;81;21997;-84
2022/09/29 00:49:23;;;;;;;;;;;;;;;12.44;100.00;96785.14;1719376;81;26784;-84
2022/09/29 00:51:57;;;;;;;;;;;;;;;12.42;100.00;96797.13;1712133;82;24408;-84
2022/09/29 00:54:27;;;;;;;;;;;;;;;12.41;100.00;96798.59;1734407;81;20219;-84
2022/09/29 00:56:53;;;;;;;;;;;;;;;12.36;100.00;96798.25;1733595;81;24746;-85
2022/09/29 00:59:21;;;;;;;;;;;;;;;12.33;100.00;96794.13;1705762;82;22047;-85
2022/09/29 01:01:47;;;;;;;;;;;;;;;12.33;100.00;96791.50;1702153;82;26021;-84
2022/09/29 01:04:15;;;;;;;;;;;;;;;12.33;100.00;96790.70;1731903;81;24474;-85
2022/09/29 01:06:42;;;;;;;;;;;;;;;12.34;100.00;96788.39;1733953;81;20370;-85
2022/09/29 01:09:10;;;;;;;;;;;;;;;12.30;100.00;96784.45;1684067;82;24907;-85
2022/09/29 01:11:36;;;;;;;;;;;;;;;12.29;100.00;96781.48;1735259;80;22180;-85
2022/09/29 01:14:05;;;;;;;;;;;;;;;12.25;100.00;96780.99;1723296;81;27024;-85
2022/09/29 01:16:32;;;;;;;;;;;;;;;12.29;100.00;96786.73;1720886;82;24479;-85
2022/09/29 01:18:59;;;;;;;;;;;;;;;12.34;100.00;96781.83;1725828;82;20216;-85
2022/09/29 01:21:33;;;;;;;;;;;;;;;12.36;100.00;96783.82;1723584;82;24740;-84
2022/09/29 01:24:03;;;;;;;;;;;;;;;12.30;100.00;96784.45;1722632;82;21990;-85
2022/09/29 01:26:31;;;;;;;;;;;;;;;12.16;100.00;96779.33;1720701;81;25886;-85
2022/09/29 01:29:02;;;;;;;;;;;;;;;12.07;100.00;96773.20;1718857;82;24486;-85
2022/09/29 01:31:39;;;;;;;;;;;;;;;12.04;100.00;96777.46;1707693;82;20261;-85
2022/09/29 01:34:10;;;;;;;;;;;;;;;12.00;100.00;96777.42;1687147;82;24924;-85
2022/09/29 01:36:43;;;;;;;;;;;;;;;11.94;100.00;96778.07;1726827;81;22846;-85
2022/09/29 01:39:14;;;;;;;;;;;;;;;11.88;100.00;96783.11;1734995;81;26206;-85
2022/09/29 01:41:45;;;;;;;;;;;;;;;11.83;100.00;96784.06;1704330;82;24534;-85
2022/09/29 01:44:15;;;;;;;;;;;;;;;11.76;100.00;96777.30;1734476;80;20212;-85
2022/09/29 01:46:58;;;;;;;;;;;;;;;11.78;100.00;96774.54;1686500;84;24868;-85
2022/09/29 01:49:26;;;;;;;;;;;;;;;11.90;100.00;96783.27;1736214;81;22131;-85
2022/09/29 01:51:53;;;;;;;;;;;;;;;11.89;100.00;96779.00;1736039;81;26252;-85
2022/09/29 01:54:21;;;;;;;;;;;;;;;11.92;100.00;96780.02;1732315;81;24443;-85
2022/09/29 01:56:49;;;;;;;;;;;;;;;11.90;100.00;96776.72;1719235;82;20249;-85
2022/09/29 01:59:18;;;;;;;;;;;;;;;11.80;100.00;96773.88;1716861;82;24826;-85
2022/09/29 02:01:45;;;;;;;;;;;;;;;11.76;100.00;96777.30;1720100;82;22798;-85
2022/09/29 02:04:22;;;;;;;;;;;;;;;11.72;100.00;96788.56;1724106;82;25973;-85
2022/09/29 02:06:50;;;;;;;;;;;;;;;11.68;100.00;96782.45;1735317;80;24576;-85
2022/09/29 02:09:21;;;;;;;;;;;;;;;11.62;100.00;96779.13;1734911;81;20489;-85
2022/09/29 02:11:50;;;;;;;;;;;;;;;11.63;100.00;96779.47;1684976;82;24760;-85
2022/09/29 02:14:19;;;;;;;;;;;;;;;11.67;100.00;96778.21;1725611;82;22089;-85
2022/09/29 02:16:49;;;;;;;;;;;;;;;11.71;100.00;96775.13;1720663;82;26158;-85
2022/09/29 02:19:23;;;;;;;;;;;;;;;11.74;100.00;96770.90;1721516;82;24411;-85
2022/09/29 02:21:53;;;;;;;;;;;;;;;11.76;100.00;96768.62;1724843;82;20565;-85
2022/09/29 02:24:16;;;;;;;;;;;;;;;11.73;100.00;96761.87;1724580;82;24274;-85
2022/09/29 02:26:44;;;;;;;;;;;;;;;11.71;100.00;96758.58;1728405;82;20310;-85
2022/09/29 02:29:10;;;;;;;;;;;;;;;11.70;100.00;96764.78;1725238;82;25993;-85
2022/09/29 02:31:36;;;;;;;;;;;;;;;11.72;100.00;96759.73;1707047;82;20299;-85
2022/09/29 02:34:03;;;;;;;;;;;;;;;11.68;100.00;96761.48;1740052;81;20216;-85
2022/09/29 02:36:34;;;;;;;;;;;;;;;11.65;100.00;96763.12;1741080;81;25242;-84
2022/09/29 02:39:02;;;;;;;;;;;;;;;11.59;100.00;96759.31;1739465;81;22098;-85
2022/09/29 02:41:36;;;;;;;;;;;;;;;11.52;100.00;96756.14;1738865;80;25894;-85
2022/09/29 02:44:12;;;;;;;;;;;;;;;11.50;100.00;96759.42;1735850;81;25210;-85
2022/09/29 02:46:43;;;;;;;;;;;;;;;11.49;100.00;96760.39;1738947;80;20191;-85
2022/09/29 02:49:17;;;;;;;;;;;;;;;11.54;100.00;96762.06;1723001;82;24598;-85
2022/09/29 02:51:44;;;;;;;;;;;;;;;11.52;100.00;96764.00;1724697;82;22074;-85
2022/09/29 02:54:12;;;;;;;;;;;;;;;11.52;100.00;96762.21;1700191;83;26052;-85
2022/09/29 02:56:53;;;;;;;;;;;;;;;11.50;100.00;96757.62;1724171;82;24418;-85
2022/09/29 02:59:32;;;;;;;;;;;;;;;11.56;100.00;96769.30;1726178;82;20289;-85
2022/09/29 03:01:58;;;;;;;;;;;;;;;11.66;100.00;96767.39;1720511;82;25445;-85
2022/09/29 03:04:25;;;;;;;;;;;;;;;11.66;100.00;96764.77;1739828;80;20377;-85
2022/09/29 03:06:51;;;;;;;;;;;;;;;11.76;100.00;96769.44;1741237;81;25492;-85
2022/09/29 03:09:17;;;;;;;;;;;;;;;11.87;100.00;96762.63;1707396;82;25197;-85
2022/09/29 03:11:43;;;;;;;;;;;;;;;11.92;100.00;96759.05;1737378;80;20239;-85
2022/09/29 03:14:12;;;;;;;;;;;;;;;11.95;100.00;96754.78;1713428;82;20741;-85
2022/09/29 03:16:38;;;;;;;;;;;;;;;11.98;100.00;96758.42;1740073;81;21988;-85
2022/09/29 03:19:07;;;;;;;;;;;;;;;12.02;100.00;96764.16;1700131;82;26795;-85
2022/09/29 03:21:34;;;;;;;;;;;;;;;12.04;100.00;96760.42;1725400;80;25321;-85
2022/09/29 03:24:00;;;;;;;;;;;;;;;12.02;100.00;96759.74;1703728;82;20309;-84
2022/09/29 03:26:26;;;;;;;;;;;;;;;11.97;100.00;96755.95;1694978;82;24704;-85
2022/09/29 03:28:52;;;;;;;;;;;;;;;11.87;100.00;96757.38;1704684;83;20238;-85
2022/09/29 03:31:18;;;;;;;;;;;;;;;11.72;100.00;96752.36;1701998;82;21006;-84
2022/09/29 03:33:44;;;;;;;;;;;;;;;11.66;100.00;96754.28;1736876;80;24477;-85
2022/09/29 03:36:12;;;;;;;;;;;;;;;11.55;100.00;96754.06;1728743;81;20364;-85
2022/09/29 03:38:38;;;;;;;;;;;;;;;11.49;100.00;96763.02;1705526;82;24914;-85
2022/09/29 03:41:04;;;;;;;;;;;;;;;11.54;100.00;96764.69;1721433;82;20314;-84
2022/09/29 03:43:30;;;;;;;;;;;;;;;11.55;100.00;96767.64;1719600;82;25742;-84
2022/09/29 03:45:56;;;;;;;;;;;;;;;11.63;100.00;96767.68;1712307;82;20888;-85
2022/09/29 03:48:26;;;;;;;;;;;;;;;11.66;100.00;96760.84;1711477;82;20933;-84
2022/09/29 03:50:53;;;;;;;;;;;;;;;11.69;100.00;96776.23;1719842;82;25508;-85
2022/09/29 03:53:19;;;;;;;;;;;;;;;11.77;100.00;96774.20;1725056;82;22071;-84
2022/09/29 03:55:45;;;;;;;;;;;;;;;11.83;100.00;96774.41;1710385;82;20998;-84
2022/09/29 03:58:14;;;;;;;;;;;;;;;11.84;100.00;96776.55;1738094;80;20199;-85
2022/09/29 04:00:43;;;;;;;;;;;;;;;11.81;100.00;96781.59;1735867;80;20152;-85
2022/09/29 04:03:09;;;;;;;;;;;;;;;11.87;100.00;96794.08;1735331;80;24732;-85
2022/09/29 04:05:37;;;;;;;;;;;;;;;11.91;100.00;96791.47;1734730;80;20243;-85
2022/09/29 04:08:04;;;;;;;;;;;;;;;11.90;100.00;96774.09;1705573;82;26001;-85
2022/09/29 04:10:32;;;;;;;;;;;;;;;11.76;100.00;96770.75;1705417;82;24533;-85
2022/09/29 04:12:58;;;;;;;;;;;;;;;11.78;100.00;96791.57;1712224;82;20301;-85
2022/09/29 04:15:23;;;;;;;;;;;;;;;11.77;100.00;96794.68;1713565;82;20202;-84
2022/09/29 04:17:49;;;;;;;;;;;;;;;11.77;100.00;96792.06;1712802;82;20449;-85
2022/09/29 04:20:16;;;;;;;;;;;;;;;11.78;100.00;96796.33;1736837;81;20888;-84
2022/09/29 04:22:43;;;;;;;;;;;;;;;11.81;100.00;96805.18;1753033;80;24443;-84
2022/09/29 04:25:09;;;;;;;;;;;;;;;11.80;100.00;96799.59;1699976;83;20207;-85
2022/09/29 04:27:35;;;;;;;;;;;;;;;11.75;100.00;96795.31;1726724;81;24865;-84
2022/09/29 04:30:01;;;;;;;;;;;;;;;11.70;100.00;96795.75;1718110;82;22029;-85
2022/09/29 04:32:26;;;;;;;;;;;;;;;11.68;100.00;96795.55;1720090;82;20935;-84
2022/09/29 04:34:55;;;;;;;;;;;;;;;11.70;100.00;96796.23;1718516;82;20234;-84
2022/09/29 04:37:21;;;;;;;;;;;;;;;11.68;100.00;96798.17;1707172;81;20543;-84
2022/09/29 04:39:47;;;;;;;;;;;;;;;11.66;100.00;96794.91;1731716;80;21732;-84
2022/09/29 04:42:15;;;;;;;;;;;;;;;11.65;100.00;96799.80;1704082;83;22104;-84
2022/09/29 04:44:41;;;;;;;;;;;;;;;11.64;100.00;96797.67;1731449;80;21863;-85
2022/09/29 04:47:06;;;;;;;;;;;;;;;11.63;100.00;96802.56;1728524;82;20329;-84
2022/09/29 04:49:32;;;;;;;;;;;;;;;11.58;100.00;96804.83;1728206;81;20872;-84
2022/09/29 04:51:58;;;;;;;;;;;;;;;11.53;100.00;96813.63;1725916;81;20238;-84
2022/09/29 04:54:24;;;;;;;;;;;;;;;11.52;100.00;96815.91;1726972;82;20290;-84
2022/09/29 04:56:50;;;;;;;;;;;;;;;11.53;100.00;96817.56;1733288;81;20922;-85
2022/09/29 04:59:16;;;;;;;;;;;;;;;11.50;100.00;96810.51;1728348;81;24543;-84
2022/09/29 05:01:42;;;;;;;;;;;;;;;11.49;100.00;96812.78;1715935;82;20357;-84
2022/09/29 05:04:09;;;;;;;;;;;;;;;11.48;100.00;96813.27;1729407;81;20279;-84
2022/09/29 05:06:38;;;;;;;;;;;;;;;11.46;100.00;96812.59;1732872;80;22079;-84
2022/09/29 05:09:05;;;;;;;;;;;;;;;11.46;100.00;96802.59;1733739;80;26089;-84
2022/09/29 05:11:30;;;;;;;;;;;;;;;11.47;100.00;96813.41;1736632;80;25236;-84
2022/09/29 05:13:57;;;;;;;;;;;;;;;11.48;100.00;96815.89;1740440;80;20236;-84
2022/09/29 05:16:23;;;;;;;;;;;;;;;11.49;100.00;96817.54;1657518;84;24740;-84
2022/09/29 05:18:51;;;;;;;;;;;;;;;11.52;100.00;96826.39;1714104;82;20171;-84
2022/09/29 05:21:20;;;;;;;;;;;;;;;11.56;100.00;96820.38;1722801;82;26930;-84
2022/09/29 05:23:49;;;;;;;;;;;;;;;11.61;100.00;96821.56;1723232;82;24777;-84
2022/09/29 05:26:15;;;;;;;;;;;;;;;11.66;100.00;96820.63;1716453;82;20233;-84
2022/09/29 05:28:46;;;;;;;;;;;;;;;11.69;100.00;96825.54;1725778;82;20852;-84
2022/09/29 05:31:12;;;;;;;;;;;;;;;11.63;100.00;96816.98;1726477;82;22813;-84
2022/09/29 05:33:39;;;;;;;;;;;;;;;11.65;100.00;96823.39;1719435;82;26168;-84
2022/09/29 05:36:09;;;;;;;;;;;;;;;11.62;100.00;96824.98;1713185;82;25264;-84
2022/09/29 05:38:35;;;;;;;;;;;;;;;11.64;100.00;96819.11;1720807;82;20170;-84
2022/09/29 05:41:06;;;;;;;;;;;;;;;11.66;100.00;96815.86;1747525;80;24856;-84
2022/09/29 05:43:33;;;;;;;;;;;;;;;11.62;100.00;96821.88;1753468;80;20185;-85
2022/09/29 05:46:00;;;;;;;;;;;;;;;11.65;100.00;96819.45;1708604;82;20999;-84
2022/09/29 05:48:28;;;;;;;;;;;;;;;11.64;100.00;96820.42;1734981;80;24475;-84
2022/09/29 05:50:54;;;;;;;;;;;;;;;11.65;100.00;96822.90;1709576;82;20327;-84
2022/09/29 05:53:20;;;;;;;;;;;;;;;11.63;100.00;96819.60;1744265;80;20389;-84
2022/09/29 05:55:45;;;;;;;;;;;;;;;11.66;100.00;96821.93;1701471;83;20294;-84
2022/09/29 05:58:11;;;;;;;;;;;;;;;11.73;100.00;96820.35;1709916;83;21013;-85
2022/09/29 06:00:38;;;;;;;;;;;;;;;11.80;100.00;96821.88;1703263;83;24616;-85
2022/09/29 06:03:04;;;;;;;;;;;;;;;11.83;100.00;96817.66;1707730;83;20246;-85
2022/09/29 06:05:29;;;;;;;;;;;;;;;11.82;100.00;96816.00;1704044;82;20229;-84
2022/09/29 06:07:55;;;;;;;;;;;;;;;11.82;100.00;96823.87;1740593;80;20232;-84
2022/09/29 06:10:21;;;;;;;;;;;;;;;11.81;100.00;96814.84;1710404;83;21276;-84
2022/09/29 06:13:08;;;;;;;;;;;;;;;11.82;100.00;96814.70;1734730;80;24485;-84
2022/09/29 06:15:36;;;;;;;;;;;;;;;11.88;100.00;96814.56;1659105;85;20520;-84
2022/09/29 06:18:03;;;;;;;;;;;;;;;11.93;100.00;96814.92;1698107;83;24810;-84
2022/09/29 06:20:29;;;;;;;;;;;;;;;11.99;100.00;96816.92;1648259;85;20215;-84
2022/09/29 06:22:55;;;;;;;;;;;;;;;12.02;100.00;96821.84;1691919;82;26049;-84
2022/09/29 06:25:22;;;;;;;;;;;;;;;12.00;100.00;96829.06;1689990;83;20522;-85
2022/09/29 06:27:48;;;;;;;;;;;;;;;12.04;100.00;96829.91;1693409;83;20858;-84
2022/09/29 06:30:14;;;;;;;;;;;;;;;12.08;100.00;96831.23;1695305;83;20297;-85
2022/09/29 06:32:40;;;;;;;;;;;;;;;12.12;100.00;96833.86;1695880;83;20803;-84
2022/09/29 06:37:54;;;;;;;;;;;;;;;12.25;100.00;96844.42;1701153;83;24584;-84
2022/09/29 06:40:22;;;;;;;;;;;;;;;12.34;100.00;96844.79;1691159;83;20280;-84
2022/09/29 06:42:48;;;;;;;;;;;;;;;12.39;100.00;96839.89;1697211;83;24950;-85
2022/09/29 06:45:15;;;;;;;;;;;;;;;12.38;100.00;96838.27;1690589;83;22217;-85
2022/09/29 06:47:41;;;;;;;;;;;;;;;12.39;100.00;96839.41;1675985;84;25984;-84
2022/09/29 06:50:13;;;;;;;;;;;;;;;12.38;100.00;96836.96;1686879;83;25322;-84
2022/09/29 06:52:39;;;;;;;;;;;;;;;12.37;100.00;96831.37;1693458;83;20538;-84
2022/09/29 06:55:06;;;;;;;;;;;;;;;12.40;100.00;96821.87;1705513;83;20254;-84
2022/09/29 06:57:32;;;;;;;;;;;;;;;12.40;100.00;96812.69;1698127;83;21972;-84
2022/09/29 06:59:58;;;;;;;;;;;;;;;12.52;100.00;96821.44;1691526;83;21008;-84
2022/09/29 07:02:23;;;;;;;;;;;;;;;12.59;100.00;96825.56;1698817;83;20468;-85
2022/09/29 07:04:49;;;;;;;;;;;;;;;12.64;100.00;96829.84;1687234;83;20332;-84
2022/09/29 07:07:16;;;;;;;;;;;;;;;12.79;100.00;96833.49;1688729;83;24873;-84
2022/09/29 07:09:42;;;;;;;;;;;;;;;12.90;100.00;96834.99;1698800;83;20241;-84
2022/09/29 07:12:09;;;;;;;;;;;;;;;12.96;100.00;96835.67;1697956;83;26031;-84
2022/09/29 07:14:35;;;;;;;;;;;;;;;13.02;100.00;96841.59;1678114;82;24524;-84
2022/09/29 07:17:01;;;;;;;;;;;;;;;13.16;100.00;96848.03;1680131;83;20281;-84
2022/09/29 07:19:28;;;;;;;;;;;;;;;13.28;100.00;96852.00;1696728;83;24826;-85
2022/09/29 07:21:54;;;;;;;;;;;;;;;13.37;100.00;96853.16;1699141;83;22065;-85
2022/09/29 07:24:20;;;;;;;;;;;;;;;13.48;100.00;96853.81;1703660;83;21010;-85
2022/09/29 07:26:46;;;;;;;;;;;;;;;13.52;100.00;96853.34;1694179;83;24626;-85
2022/09/29 07:29:12;;;;;;;;;;;;;;;13.50;100.00;96856.62;1691258;83;20232;-85
2022/09/29 07:31:38;;;;;;;;;;;;;;;13.52;100.00;96855.98;1683237;84;26095;-85
2022/09/29 07:34:04;;;;;;;;;;;;;;;13.58;100.00;96860.55;1699799;83;22149;-85
2022/09/29 07:36:37;;;;;;;;;;;;;;;13.51;100.00;96850.88;1694859;83;26084;-85
2022/09/29 07:39:02;;;;;;;;;;;;;;;13.62;100.00;96855.31;1699843;83;24476;-85
2022/09/29 07:41:28;;;;;;;;;;;;;;;13.71;100.00;96860.06;1698917;83;20563;-85
2022/09/29 07:43:56;;;;;;;;;;;;;;;13.77;100.00;96858.09;1701171;83;20239;-85
2022/09/29 07:46:21;;;;;;;;;;;;;;;13.77;100.00;96860.23;1696280;83;22283;-85
2022/09/29 07:48:47;;;;;;;;;;;;;;;13.77;100.00;96860.72;1697994;83;21091;-84
2022/09/29 07:51:14;;;;;;;;;;;;;;;13.83;100.00;96863.52;1694563;83;20228;-85
2022/09/29 07:53:41;;;;;;;;;;;;;;;13.94;100.00;96870.73;1695729;83;20474;-84
2022/09/29 07:56:08;;;;;;;;;;;;;;;14.01;100.00;96876.98;1696429;83;24848;-85
2022/09/29 07:58:34;;;;;;;;;;;;;;;14.08;100.00;96881.89;1695260;83;21982;-85
2022/09/29 08:01:09;;;;;;;;;;;;;;;14.15;100.00;96885.01;1697952;83;21040;-85
2022/09/29 08:03:38;;;;;;;;;;;;;;;14.25;100.00;96890.91;1695572;83;22040;-85
2022/09/29 08:06:04;;;;;;;;;;;;;;;14.29;100.00;96892.73;1694345;83;20295;-85
2022/09/29 08:08:30;;;;;;;;;;;;;;;14.28;100.00;96896.84;1696611;83;24829;-85
2022/09/29 08:11:15;;;;;;;;;;;;;;;14.27;100.00;96899.95;1690868;83;20257;-85
2022/09/29 08:13:41;;;;;;;;;;;;;;;14.25;100.00;96897.98;1694975;83;26796;-85
2022/09/29 08:16:09;;;;;;;;;;;;;;;14.26;100.00;96893.05;1698242;83;20241;-85
2022/09/29 08:18:36;;;;;;;;;;;;;;;14.32;100.00;96888.92;1672606;84;20230;-85
2022/09/29 08:21:03;;;;;;;;;;;;;;;14.40;100.00;96888.95;1663148;85;25681;-85
2022/09/29 08:23:30;;;;;;;;;;;;;;;14.38;100.00;96890.91;1678241;84;22001;-85
2022/09/29 08:26:04;;;;;;;;;;;;;;;14.41;100.00;96880.04;1683042;84;25979;-85
2022/09/29 08:28:32;;;;;;;;;;;;;;;14.33;100.00;96874.29;1683168;84;20180;-85
2022/09/29 08:31:02;;;;;;;;;;;;;;;14.12;100.00;96872.69;1685626;84;20249;-85
2022/09/29 08:33:29;;;;;;;;;;;;;;;13.87;100.00;96878.46;1678542;84;24891;-85
2022/09/29 08:36:00;;;;;;;;;;;;;;;13.87;100.00;96885.53;1677928;84;22893;-85
2022/09/29 08:38:24;;;;;;;;;;;;;;;14.05;100.00;96900.16;1679349;83;26104;-85
2022/09/29 08:40:50;;;;;;;;;;;;;;;14.19;100.00;96905.22;1683369;84;25213;-84
2022/09/29 08:43:21;;;;;;;;;;;;;;;14.33;100.00;96913.77;1678633;84;20236;-85
2022/09/29 08:45:49;;;;;;;;;;;;;;;14.46;100.00;96919.34;1678706;84;24843;-85
2022/09/29 08:48:20;;;;;;;;;;;;;;;14.47;100.00;96920.16;1678482;83;22025;-85
2022/09/29 08:50:52;;;;;;;;;;;;;;;14.57;100.00;96926.88;1670089;83;21282;-85
2022/09/29 08:53:21;;;;;;;;;;;;;;;14.57;100.00;96925.56;1680358;84;24447;-85
2022/09/29 08:55:58;;;;;;;;;;;;;;;14.60;100.00;96929.69;1678839;84;20227;-85
2022/09/29 08:58:24;;;;;;;;;;;;;;;14.64;100.00;96923.09;1679050;84;24852;-84
2022/09/29 09:00:57;;;;;;;;;;;;;;;14.65;100.00;96924.73;1675434;84;20266;-84
2022/09/29 09:03:29;;;;;;;;;;;;;;;14.40;100.00;96921.85;1675088;84;26012;-85
2022/09/29 09:06:00;;;;;;;;;;;;;;;14.14;100.00;96918.88;1672794;84;24609;-85
2022/09/29 09:08:44;;;;;;;;;;;;;;;13.91;100.00;96919.73;1680664;84;20324;-84
2022/09/29 09:11:24;;;;;;;;;;;;;;;13.74;100.00;96916.28;1670766;84;24825;-84
2022/09/29 09:14:10;;;;;;;;;;;;;;;13.68;100.00;96918.24;1678170;84;22238;-85
2022/09/29 09:16:47;;;;;;;;;;;;;;;13.65;100.00;96923.32;1683365;84;26034;-85
2022/09/29 09:19:18;;;;;;;;;;;;;;;13.71;100.00;96920.05;1669382;84;24480;-85
2022/09/29 09:21:49;;;;;;;;;;;;;;;13.76;100.00;96919.55;1674292;84;20218;-84
2022/09/29 09:24:19;;;;;;;;;;;;;;;13.89;100.00;96926.95;1674160;84;24846;-85
2022/09/29 09:26:45;;;;;;;;;;;;;;;14.14;100.00;96924.63;1671392;84;22091;-85
2022/09/29 09:29:16;;;;;;;;;;;;;;;14.32;100.00;96936.30;1678315;84;26163;-84
2022/09/29 09:31:52;;;;;;;;;;;;;;;14.48;100.00;96938.92;1685468;84;24385;-85
2022/09/29 09:34:25;;;;;;;;;;;;;;;14.57;100.00;96934.78;1647878;85;20244;-85
2022/09/29 09:36:53;;;;;;;;;;;;;;;14.62;100.00;96945.63;1667690;84;24868;-84
2022/09/29 09:39:27;;;;;;;;;;;;;;;14.65;100.00;96943.17;1685533;83;22171;-84
2022/09/29 09:41:55;;;;;;;;;;;;;;;14.62;100.00;96940.85;1679334;84;26801;-84
2022/09/29 09:44:26;;;;;;;;;;;;;;;14.61;100.00;96934.80;1679180;84;25580;-84
2022/09/29 09:46:53;;;;;;;;;;;;;;;14.65;100.00;96945.31;1675604;84;20242;-85
2022/09/29 09:49:21;;;;;;;;;;;;;;;14.71;100.00;96942.98;1674497;83;24763;-84
2022/09/29 09:52:06;;;;;;;;;;;;;;;14.62;100.00;96937.73;1647702;85;22106;-84
2022/09/29 09:54:35;;;;;;;;;;;;;;;14.74;100.00;96947.91;1655598;85;26063;-84
2022/09/29 09:57:09;;;;;;;;;;;;;;;14.78;100.00;96942.64;1678137;84;25108;-84
2022/09/29 09:59:40;;;;;;;;;;;;;;;14.63;100.00;96941.19;1671231;84;20222;-84
2022/09/29 10:02:07;;;;;;;;;;;;;;;14.39;100.00;96937.31;1678160;84;24823;-84
2022/09/29 10:04:33;;;;;;;;;;;;;;;14.18;100.00;96935.17;1679667;83;22040;-84
2022/09/29 10:06:59;;;;;;;;;;;;;;;14.18;100.00;96933.86;1677084;84;21220;-84
2022/09/29 10:09:25;;;;;;;;;;;;;;;14.24;100.00;96930.05;1676793;84;24472;-84
2022/09/29 10:11:51;;;;;;;;;;;;;;;14.22;100.00;96935.16;1689574;84;20359;-84
2022/09/29 10:14:22;;;;;;;;;;;;;;;14.21;100.00;96933.02;1685900;82;24755;-84
2022/09/29 10:16:52;;;;;;;;;;;;;;;14.22;100.00;96932.53;1689330;83;23092;-85
2022/09/29 10:19:22;;;;;;;;;;;;;;;14.27;100.00;96939.43;1661574;83;26816;-84
2022/09/29 10:21:48;;;;;;;;;;;;;;;14.33;100.00;96941.89;1688663;83;24522;-84
2022/09/29 10:24:28;;;;;;;;;;;;;;;14.49;100.00;96943.20;1700076;83;20224;-84
2022/09/29 10:26:56;;;;;;;;;;;;;;;14.71;100.00;96939.04;1688556;83;24830;-84
2022/09/29 10:29:26;;;;;;;;;;;;;;;14.90;100.00;96938.63;1692632;83;21955;-84
2022/09/29 10:31:57;;;;;;;;;;;;;;;15.01;100.00;96942.20;1691665;83;26182;-84
2022/09/29 10:34:24;;;;;;;;;;;;;;;15.01;100.00;96944.34;1695969;83;25352;-84
2022/09/29 10:36:54;;;;;;;;;;;;;;;14.98;100.00;96943.39;1686590;83;20523;-84
2022/09/29 10:39:31;;;;;;;;;;;;;;;15.00;100.00;96943.23;1697252;83;25289;-84
2022/09/29 10:41:56;;;;;;;;;;;;;;;15.05;100.00;96950.91;1693082;83;22001;-84
2022/09/29 10:44:22;;;;;;;;;;;;;;;14.97;100.00;96950.13;1694032;83;20887;-84
2022/09/29 10:46:53;;;;;;;;;;;;;;;15.03;100.00;96950.77;1707466;83;24666;-84
2022/09/29 10:49:21;;;;;;;;;;;;;;;14.87;100.00;96954.78;1699613;83;20225;-84
2022/09/29 10:51:54;;;;;;;;;;;;;;;14.73;100.00;96952.87;1672519;85;24681;-84
2022/09/29 10:54:24;;;;;;;;;;;;;;;14.61;100.00;96952.41;1699116;83;22085;-85
2022/09/29 10:56:50;;;;;;;;;;;;;;;14.54;100.00;96954.88;1699530;83;26007;-84
2022/09/29 10:59:17;;;;;;;;;;;;;;;14.37;100.00;96955.06;1671892;85;24663;-84
2022/09/29 11:01:49;;;;;;;;;;;;;;;14.24;100.00;96952.41;1670936;85;20279;-84
2022/09/29 11:04:17;;;;;;;;;;;;;;;14.12;100.00;96950.30;1695182;83;24751;-85
2022/09/29 11:06:45;;;;;;;;;;;;;;;14.06;100.00;96955.73;1696534;83;22097;-84
2022/09/29 11:09:17;;;;;;;;;;;;;;;14.01;100.00;96945.37;1691454;83;26040;-84
2022/09/29 11:11:47;;;;;;;;;;;;;;;14.09;100.00;96947.98;1670916;85;24538;-84
2022/09/29 11:14:32;;;;;;;;;;;;;;;14.18;100.00;96950.44;1690987;83;20480;-84
2022/09/29 11:16:59;;;;;;;;;;;;;;;14.27;100.00;96943.87;1675766;82;24826;-84
2022/09/29 11:19:26;;;;;;;;;;;;;;;14.43;100.00;96943.88;1679654;84;22130;-84
2022/09/29 11:22:03;;;;;;;;;;;;;;;14.36;100.00;96943.69;1686213;84;25978;-84
2022/09/29 11:24:37;;;;;;;;;;;;;;;14.40;100.00;96948.97;1685361;84;25087;-84
2022/09/29 11:27:23;;;;;;;;;;;;;;;14.49;100.00;96956.38;1679814;84;20207;-84
2022/09/29 11:29:51;;;;;;;;;;;;;;;14.50;100.00;96961.47;1686261;84;24773;-84
2022/09/29 11:32:19;;;;;;;;;;;;;;;14.67;100.00;96958.80;1673316;84;22176;-84
2022/09/29 11:34:52;;;;;;;;;;;;;;;14.96;100.00;96959.02;1686334;84;26085;-84
2022/09/29 11:37:23;;;;;;;;;;;;;;;15.17;100.00;96956.62;1686740;84;24431;-84
2022/09/29 11:39:51;;;;;;;;;;;;;;;15.31;100.00;96954.60;1626810;86;20644;-84
2022/09/29 11:42:18;;;;;;;;;;;;;;;15.32;100.00;96952.79;1677342;84;25606;-84
2022/09/29 11:44:57;;;;;;;;;;;;;;;15.36;100.00;96950.13;1687864;83;22069;-84
2022/09/29 11:47:26;;;;;;;;;;;;;;;15.36;100.00;96947.48;1679674;84;25906;-84
2022/09/29 11:50:00;;;;;;;;;;;;;;;15.35;100.00;96947.16;1672037;84;24464;-84
2022/09/29 11:52:37;;;;;;;;;;;;;;;15.17;100.00;96953.17;1688055;84;20507;-84
2022/09/29 11:55:21;;;;;;;;;;;;;;;15.26;100.00;96956.11;1681433;84;24755;-84
2022/09/29 11:57:49;;;;;;;;;;;;;;;15.43;100.00;96954.55;1686293;84;22048;-84
2022/09/29 12:00:16;;;;;;;;;;;;;;;15.59;100.00;96955.47;1678983;84;25993;-84
2022/09/29 12:02:44;;;;;;;;;;;;;;;15.67;100.00;96954.08;1684814;83;24535;-84
2022/09/29 12:05:29;;;;;;;;;;;;;;;15.67;100.00;96950.95;1675975;84;20555;-84
2022/09/29 12:08:00;;;;;;;;;;;;;;;15.56;100.00;96952.66;1673541;84;24875;-84
2022/09/29 12:10:34;;;;;;;;;;;;;;;15.67;100.00;96947.48;1678387;84;22094;-84
2022/09/29 12:13:05;;;;;;;;;;;;;;;15.78;100.00;96952.36;1664786;83;26089;-85
2022/09/29 12:15:42;;;;;;;;;;;;;;;15.91;100.00;96949.97;1620487;86;24432;-85
2022/09/29 12:18:11;;;;;;;;;;;;;;;16.00;100.00;96958.13;1645704;86;20265;-84
2022/09/29 12:20:39;;;;;;;;;;;;;;;16.07;100.00;96950.33;1642964;86;25027;-85
2022/09/29 12:23:09;;;;;;;;;;;;;;;16.13;100.00;96956.22;1670780;84;20176;-85
2022/09/29 12:25:36;;;;;;;;;;;;;;;16.15;100.00;96953.71;1666324;84;25966;-84
2022/09/29 12:28:07;;;;;;;;;;;;;;;16.20;100.00;96953.20;1649411;85;24425;-85
2022/09/29 12:30:35;;;;;;;;;;;;;;;16.05;100.00;96957.09;1664945;84;20277;-84
2022/09/29 12:33:05;;;;;;;;;;;;;;;15.89;100.00;96958.05;1662004;84;25691;-84
2022/09/29 12:35:33;;;;;;;;;;;;;;;15.76;100.00;96959.15;1657966;86;21992;-84
2022/09/29 12:38:14;;;;;;;;;;;;;;;15.64;100.00;96961.86;1674187;83;25540;-84
2022/09/29 12:40:42;;;;;;;;;;;;;;;15.65;100.00;96964.00;1674270;84;25222;-84
2022/09/29 12:43:14;;;;;;;;;;;;;;;15.53;100.00;96964.07;1661179;83;20492;-84
2022/09/29 12:45:55;;;;;;;;;;;;;;;15.44;100.00;96961.92;1662134;84;24182;-84